Crystal, North Dakota
Current Conditions -  °F | °C
As of 4:35 PM on Monday 22 Dec 2014 (Local Time) from K2C8 Reporting Station
Moderate Fog Moderate Fog  
Wind Chill: 28°   Ceiling: 200
Heat Index: 34°   Visibility: 0.5mi
Dew Point: 34°   Wind: 7mph
Humidity: 100%   Direction: 20°NNE
Pressure: 29.65"   Gusts: NA
Location:  48.6°N, 97.67°W
Report Text: K2C8 222235Z AUTO 02006KT 1/2SM FG OVC002 01/01 A2965 RMK AO2
Loading
Personal Weather Stations






























Interactive Weather Map New forecast layout! Learn more

10-Day Weather Forecast

Advertisements
Track Severe Weather on mobile